Time;durP1;ratioP1;P1;durP2;ratioP2;P2;SDS_P1;SDS_P2;PMS_P1;PMS_P2;Temp;Humidity;BMP_temperature;BMP_pressure;BME280_temperature;BME280_humidity;BME280_pressure;Samples;Min_cycle;Max_cycle;Signal;HPM_P1;HPM_P2
2022/04/28 00:00:08;;;;;;;;;;;9.70;90.40;;;;;;5037747;28;37957;-58
2022/04/28 00:02:35;;;;;;;;;;;9.70;90.30;;;;;;5039742;28;38426;-59
2022/04/28 00:05:03;;;;;;;;;;;9.70;90.40;;;;;;5037909;28;37778;-58
2022/04/28 00:07:31;;;;;;;;;;;9.70;89.30;;;;;;5040476;28;35094;-58
2022/04/28 00:09:59;;;;;;;;;;;9.70;88.20;;;;;;5039975;28;36632;-58
2022/04/28 00:12:26;;;;;;;;;;;9.70;89.00;;;;;;5040335;28;39135;-58
2022/04/28 00:14:53;;;;;;;;;;;9.70;88.70;;;;;;5040155;28;37241;-58
2022/04/28 00:17:20;;;;;;;;;;;9.70;88.70;;;;;;5039828;28;37424;-57
2022/04/28 00:19:47;;;;;;;;;;;9.70;87.10;;;;;;5039059;28;36849;-58
2022/04/28 00:22:16;;;;;;;;;;;9.60;85.00;;;;;;5038838;28;37851;-58
2022/04/28 00:24:45;;;;;;;;;;;9.60;84.40;;;;;;5038529;28;36931;-58
2022/04/28 00:27:12;;;;;;;;;;;9.60;84.20;;;;;;5040550;28;35098;-58
2022/04/28 00:29:39;;;;;;;;;;;9.60;84.60;;;;;;5038525;28;38486;-58
2022/04/28 00:32:07;;;;;;;;;;;9.60;84.40;;;;;;5041023;28;37334;-58
2022/04/28 00:34:34;;;;;;;;;;;9.60;84.70;;;;;;5037617;28;37124;-59
2022/04/28 00:37:01;;;;;;;;;;;9.60;85.50;;;;;;5038536;28;38182;-58
2022/04/28 00:39:28;;;;;;;;;;;9.60;85.20;;;;;;5038695;28;36649;-59
2022/04/28 00:41:56;;;;;;;;;;;9.60;86.60;;;;;;5040313;28;38831;-58
2022/04/28 00:44:23;;;;;;;;;;;9.50;85.60;;;;;;5037803;28;38869;-57
2022/04/28 00:46:51;;;;;;;;;;;9.50;84.80;;;;;;5038756;28;34115;-57
2022/04/28 00:52:00;;;;;;;;;;;9.50;84.20;;;;;;5016143;28;39694;-58
2022/04/28 00:54:29;;;;;;;;;;;9.50;83.80;;;;;;5041710;28;36984;-59
2022/04/28 00:56:57;;;;;;;;;;;9.50;84.30;;;;;;5038921;28;38952;-58
2022/04/28 00:59:25;;;;;;;;;;;9.50;84.40;;;;;;5039478;28;40562;-59
2022/04/28 01:01:53;;;;;;;;;;;9.50;85.10;;;;;;5040058;28;37833;-58
2022/04/28 01:04:20;;;;;;;;;;;9.50;86.20;;;;;;5040355;28;37881;-58
2022/04/28 01:06:47;;;;;;;;;;;9.50;86.60;;;;;;5041263;28;36297;-58
2022/04/28 01:09:16;;;;;;;;;;;9.60;86.70;;;;;;5041053;28;37866;-58
2022/04/28 01:11:44;;;;;;;;;;;9.60;87.60;;;;;;5041808;28;37749;-59
2022/04/28 01:14:12;;;;;;;;;;;9.60;88.20;;;;;;5039818;28;36103;-59
2022/04/28 01:16:39;;;;;;;;;;;9.60;88.70;;;;;;5038301;28;37487;-59
2022/04/28 01:19:06;;;;;;;;;;;9.50;87.80;;;;;;5040732;28;39084;-59
2022/04/28 01:21:35;;;;;;;;;;;9.50;86.70;;;;;;5039979;28;41025;-58
2022/04/28 01:24:03;;;;;;;;;;;9.50;86.30;;;;;;5041462;28;38013;-58
2022/04/28 01:26:30;;;;;;;;;;;9.50;86.20;;;;;;5038552;28;37147;-58
2022/04/28 01:28:58;;;;;;;;;;;9.50;86.10;;;;;;5039435;28;37665;-58
2022/04/28 01:31:25;;;;;;;;;;;9.50;85.70;;;;;;5039316;28;38026;-58
2022/04/28 01:33:52;;;;;;;;;;;9.60;87.00;;;;;;5039782;28;36071;-58
2022/04/28 01:36:19;;;;;;;;;;;9.60;87.10;;;;;;5040136;28;37639;-58
2022/04/28 01:38:48;;;;;;;;;;;9.60;87.40;;;;;;5040697;28;38316;-58
2022/04/28 01:41:15;;;;;;;;;;;9.60;89.00;;;;;;5038246;28;39328;-57
2022/04/28 01:43:42;;;;;;;;;;;9.60;89.40;;;;;;5038629;28;37053;-57
2022/04/28 01:46:09;;;;;;;;;;;9.50;89.90;;;;;;5037874;28;36771;-57
2022/04/28 01:48:36;;;;;;;;;;;9.50;89.80;;;;;;5038667;28;36611;-57
2022/04/28 01:56:34;;;;;;;;;;;9.40;90.30;;;;;;5036914;28;38538;-57
2022/04/28 01:59:01;;;;;;;;;;;9.40;90.60;;;;;;5037737;28;36471;-57
2022/04/28 02:01:28;;;;;;;;;;;9.40;91.20;;;;;;5037811;28;38826;-57
2022/04/28 02:03:55;;;;;;;;;;;9.40;91.10;;;;;;5039484;28;37113;-56
2022/04/28 02:06:22;;;;;;;;;;;9.40;91.10;;;;;;5038991;28;36048;-57
2022/04/28 02:08:51;;;;;;;;;;;9.40;91.10;;;;;;5038031;28;38718;-58
2022/04/28 02:11:18;;;;;;;;;;;9.40;91.50;;;;;;5037987;28;38118;-56
2022/04/28 02:13:45;;;;;;;;;;;9.30;91.50;;;;;;5039151;28;36072;-56
2022/04/28 02:16:12;;;;;;;;;;;9.30;91.80;;;;;;5036406;28;36197;-57
2022/04/28 02:18:39;;;;;;;;;;;9.30;91.60;;;;;;5039651;28;39353;-57
2022/04/28 02:21:07;;;;;;;;;;;9.30;91.90;;;;;;5038685;28;38610;-57
2022/04/28 02:23:34;;;;;;;;;;;9.30;92.10;;;;;;5037283;28;37878;-57
2022/04/28 02:26:02;;;;;;;;;;;9.30;92.00;;;;;;5036959;28;36917;-57
2022/04/28 02:28:29;;;;;;;;;;;9.20;92.40;;;;;;5038063;28;38428;-57
2022/04/28 02:30:56;;;;;;;;;;;9.30;92.50;;;;;;5037776;28;38531;-58
2022/04/28 02:33:23;;;;;;;;;;;9.30;92.40;;;;;;5037632;28;37391;-57
2022/04/28 02:35:50;;;;;;;;;;;9.30;92.30;;;;;;5036905;28;37044;-57
2022/04/28 02:38:17;;;;;;;;;;;9.30;92.30;;;;;;5037363;28;38624;-57
2022/04/28 02:40:44;;;;;;;;;;;9.30;92.20;;;;;;5036589;28;36722;-57
2022/04/28 02:43:12;;;;;;;;;;;9.30;92.20;;;;;;5035732;28;38110;-57
2022/04/28 02:45:40;;;;;;;;;;;9.30;92.40;;;;;;5036133;28;36299;-57
2022/04/28 02:48:07;;;;;;;;;;;9.30;92.40;;;;;;5036832;28;36408;-57
2022/04/28 02:50:35;;;;;;;;;;;9.30;92.40;;;;;;5033978;28;36514;-57
2022/04/28 02:53:02;;;;;;;;;;;9.30;92.40;;;;;;5037501;28;38290;-57
2022/04/28 02:55:29;;;;;;;;;;;9.20;92.50;;;;;;5036255;28;36370;-57
2022/04/28 02:57:57;;;;;;;;;;;9.20;92.80;;;;;;5036860;28;40781;-57
2022/04/28 03:00:25;;;;;;;;;;;9.30;92.80;;;;;;5036610;28;38128;-57
2022/04/28 03:02:52;;;;;;;;;;;9.30;92.90;;;;;;5033950;28;37681;-57
2022/04/28 03:05:19;;;;;;;;;;;9.30;93.20;;;;;;5035476;28;36901;-57
2022/04/28 03:10:51;;;;;;;;;;;9.30;93.20;;;;;;5036181;28;38679;-57
2022/04/28 03:13:19;;;;;;;;;;;9.30;93.10;;;;;;5035342;28;35983;-57
2022/04/28 03:15:48;;;;;;;;;;;9.30;92.50;;;;;;5036453;28;35769;-57
2022/04/28 03:18:15;;;;;;;;;;;9.30;92.50;;;;;;5036630;28;37657;-57
2022/04/28 03:20:43;;;;;;;;;;;9.30;92.80;;;;;;5036743;28;38131;-56
2022/04/28 03:23:11;;;;;;;;;;;9.30;92.80;;;;;;5037874;28;35834;-57
2022/04/28 03:25:38;;;;;;;;;;;9.30;93.20;;;;;;5036188;28;36829;-57
2022/04/28 03:28:05;;;;;;;;;;;9.30;93.20;;;;;;5036537;28;39136;-57
2022/04/28 03:30:32;;;;;;;;;;;9.30;93.40;;;;;;5035134;28;38576;-57
2022/04/28 03:33:01;;;;;;;;;;;9.30;93.20;;;;;;5036325;28;38810;-57
2022/04/28 03:35:28;;;;;;;;;;;9.20;93.60;;;;;;5034879;28;35953;-57
2022/04/28 03:37:58;;;;;;;;;;;9.20;93.50;;;;;;5036769;28;38424;-57
2022/04/28 03:40:25;;;;;;;;;;;9.20;93.40;;;;;;5034928;28;37257;-57
2022/04/28 03:42:52;;;;;;;;;;;9.20;93.70;;;;;;5035418;28;37799;-57
2022/04/28 03:45:19;;;;;;;;;;;9.10;93.50;;;;;;5036654;28;35830;-57
2022/04/28 03:47:46;;;;;;;;;;;9.20;93.80;;;;;;5037171;28;38303;-57
2022/04/28 03:50:15;;;;;;;;;;;9.20;93.80;;;;;;5035685;28;37914;-57
2022/04/28 03:52:42;;;;;;;;;;;9.30;93.70;;;;;;5037585;28;37058;-57
2022/04/28 03:55:09;;;;;;;;;;;9.30;93.40;;;;;;5036754;28;36242;-57
2022/04/28 03:57:37;;;;;;;;;;;9.30;93.60;;;;;;5036734;28;36582;-57
2022/04/28 04:00:04;;;;;;;;;;;9.30;93.50;;;;;;5035629;28;37492;-57
2022/04/28 04:02:31;;;;;;;;;;;9.30;93.50;;;;;;5036855;28;37104;-57
2022/04/28 04:04:58;;;;;;;;;;;9.20;93.70;;;;;;5035041;28;35113;-57
2022/04/28 04:07:31;;;;;;;;;;;9.30;93.70;;;;;;5038471;28;37724;-57
2022/04/28 04:09:58;;;;;;;;;;;9.30;93.50;;;;;;5036055;28;40757;-57
2022/04/28 04:12:25;;;;;;;;;;;9.30;93.70;;;;;;5038172;28;38647;-58
2022/04/28 04:14:52;;;;;;;;;;;9.30;93.60;;;;;;5040339;28;35364;-57
2022/04/28 04:17:20;;;;;;;;;;;9.30;93.40;;;;;;5039772;28;37818;-57
2022/04/28 04:19:47;;;;;;;;;;;9.30;93.50;;;;;;5039488;28;38059;-56
2022/04/28 04:22:14;;;;;;;;;;;9.30;93.70;;;;;;5039526;28;36741;-57
2022/04/28 04:24:43;;;;;;;;;;;9.20;94.00;;;;;;5039102;28;37032;-57
2022/04/28 04:27:10;;;;;;;;;;;9.20;94.20;;;;;;5040946;28;37626;-57
2022/04/28 04:29:37;;;;;;;;;;;9.20;94.20;;;;;;5040019;28;36604;-57
2022/04/28 04:32:20;;;;;;;;;;;9.30;94.80;;;;;;5040112;28;38222;-57
2022/04/28 04:34:48;;;;;;;;;;;9.30;94.50;;;;;;5039134;28;36982;-57
2022/04/28 04:37:15;;;;;;;;;;;9.40;94.70;;;;;;5037881;28;36736;-57
2022/04/28 04:39:44;;;;;;;;;;;9.40;94.70;;;;;;5038559;28;38630;-57
2022/04/28 04:42:11;;;;;;;;;;;9.50;94.90;;;;;;5039786;28;38336;-57
2022/04/28 04:44:38;;;;;;;;;;;9.60;94.50;;;;;;5040312;28;37591;-57
2022/04/28 04:47:06;;;;;;;;;;;9.70;94.30;;;;;;5038841;28;36484;-57
2022/04/28 04:49:33;;;;;;;;;;;9.80;94.40;;;;;;5041596;28;37574;-59
2022/04/28 04:52:01;;;;;;;;;;;9.80;93.60;;;;;;5039535;28;37823;-59
2022/04/28 04:54:28;;;;;;;;;;;9.90;93.40;;;;;;5038965;28;35146;-59
2022/04/28 04:56:57;;;;;;;;;;;10.10;93.30;;;;;;5040216;28;39324;-58
2022/04/28 04:59:24;;;;;;;;;;;10.10;93.30;;;;;;5040288;28;38402;-59
2022/04/28 05:01:52;;;;;;;;;;;10.30;93.10;;;;;;5037990;28;38383;-59
2022/04/28 05:04:19;;;;;;;;;;;10.40;93.40;;;;;;5039026;28;37715;-58
2022/04/28 05:06:46;;;;;;;;;;;10.60;93.50;;;;;;5038111;28;38791;-59
2022/04/28 05:09:13;;;;;;;;;;;10.70;93.50;;;;;;5039159;28;36749;-59
2022/04/28 05:11:40;;;;;;;;;;;10.90;93.80;;;;;;5038968;28;37895;-60
2022/04/28 05:14:09;;;;;;;;;;;11.00;93.90;;;;;;5038824;28;36083;-60
2022/04/28 05:16:36;;;;;;;;;;;11.20;93.80;;;;;;5041517;28;38017;-59
2022/04/28 05:19:03;;;;;;;;;;;11.40;93.30;;;;;;5039648;28;38735;-60
2022/04/28 05:21:30;;;;;;;;;;;11.50;92.70;;;;;;5039317;28;37856;-59
2022/04/28 05:23:57;;;;;;;;;;;11.60;92.70;;;;;;5037322;28;36984;-59
2022/04/28 05:26:24;;;;;;;;;;;11.80;92.40;;;;;;5039769;28;38537;-59
2022/04/28 05:28:51;;;;;;;;;;;12.00;91.90;;;;;;5038925;28;38008;-59
2022/04/28 05:31:20;;;;;;;;;;;12.20;91.40;;;;;;5039534;28;37522;-59
2022/04/28 05:33:47;;;;;;;;;;;12.20;91.00;;;;;;5039493;28;37079;-59
2022/04/28 05:36:15;;;;;;;;;;;12.30;90.80;;;;;;5036848;28;37503;-60
2022/04/28 05:38:42;;;;;;;;;;;12.40;89.20;;;;;;5039561;28;38277;-59
2022/04/28 05:41:09;;;;;;;;;;;12.40;89.80;;;;;;5037768;28;37774;-60
2022/04/28 05:46:23;;;;;;;;;;;12.70;90.30;;;;;;5039608;28;38918;-59
2022/04/28 05:48:50;;;;;;;;;;;12.90;90.40;;;;;;5039257;28;37762;-59
2022/04/28 05:51:18;;;;;;;;;;;13.20;89.40;;;;;;5038994;28;35302;-60
2022/04/28 05:53:45;;;;;;;;;;;13.40;86.00;;;;;;5039971;28;36239;-59
2022/04/28 05:56:13;;;;;;;;;;;13.60;84.70;;;;;;5039411;28;38192;-59
2022/04/28 05:58:40;;;;;;;;;;;13.50;83.40;;;;;;5038358;28;38110;-60
2022/04/28 06:01:07;;;;;;;;;;;13.60;84.10;;;;;;5038919;28;37593;-60
2022/04/28 06:03:36;;;;;;;;;;;13.60;82.70;;;;;;5039349;28;35811;-60
2022/04/28 06:06:03;;;;;;;;;;;13.40;82.10;;;;;;5038329;28;39263;-60
2022/04/28 06:08:30;;;;;;;;;;;13.30;82.30;;;;;;5040398;28;39627;-63
2022/04/28 06:10:58;;;;;;;;;;;13.20;82.10;;;;;;5037819;28;37078;-59
2022/04/28 06:13:25;;;;;;;;;;;13.10;83.50;;;;;;5040145;28;36394;-58
2022/04/28 06:15:52;;;;;;;;;;;13.10;83.90;;;;;;5039940;28;36529;-59
2022/04/28 06:18:19;;;;;;;;;;;13.00;83.40;;;;;;5037478;28;37813;-59
2022/04/28 06:20:48;;;;;;;;;;;13.00;85.50;;;;;;5039943;28;37980;-59
2022/04/28 06:23:15;;;;;;;;;;;13.30;85.80;;;;;;5036140;28;37358;-59
2022/04/28 06:25:43;;;;;;;;;;;13.50;84.40;;;;;;5036810;28;37983;-59
2022/04/28 06:28:10;;;;;;;;;;;13.70;82.80;;;;;;5037910;28;38535;-59
2022/04/28 06:30:37;;;;;;;;;;;13.80;83.90;;;;;;5036275;28;37948;-59
2022/04/28 06:33:04;;;;;;;;;;;13.80;84.00;;;;;;5036883;28;37576;-58
2022/04/28 06:35:33;;;;;;;;;;;13.80;82.30;;;;;;5038173;28;37377;-59
2022/04/28 06:38:02;;;;;;;;;;;13.70;82.00;;;;;;5037714;28;38111;-59
2022/04/28 06:40:29;;;;;;;;;;;13.60;84.20;;;;;;5038907;28;36727;-59
2022/04/28 06:42:56;;;;;;;;;;;13.60;86.60;;;;;;5037950;28;38206;-58
2022/04/28 06:45:26;;;;;;;;;;;13.70;86.90;;;;;;5038770;28;36542;-59
2022/04/28 06:47:53;;;;;;;;;;;13.90;85.20;;;;;;5038348;28;38240;-59
2022/04/28 06:50:20;;;;;;;;;;;13.90;82.70;;;;;;5037947;28;35943;-59
2022/04/28 06:52:47;;;;;;;;;;;13.90;82.70;;;;;;5037230;28;36270;-58
2022/04/28 06:55:15;;;;;;;;;;;13.80;83.00;;;;;;5038539;28;37845;-59
2022/04/28 06:57:42;;;;;;;;;;;13.50;80.90;;;;;;5037058;28;36556;-58
2022/04/28 07:00:10;;;;;;;;;;;13.30;81.10;;;;;;5038531;28;37085;-58
2022/04/28 07:02:37;;;;;;;;;;;13.20;82.40;;;;;;5038979;28;36196;-59
2022/04/28 07:05:05;;;;;;;;;;;13.00;83.90;;;;;;5038452;28;38179;-59
2022/04/28 07:07:32;;;;;;;;;;;12.90;83.30;;;;;;5039398;28;39285;-59
2022/04/28 07:09:59;;;;;;;;;;;12.80;84.20;;;;;;5036116;28;37039;-59
2022/04/28 07:12:27;;;;;;;;;;;12.50;83.50;;;;;;5038805;28;36545;-58
2022/04/28 07:14:55;;;;;;;;;;;12.40;85.30;;;;;;5038020;28;38416;-58
2022/04/28 07:17:22;;;;;;;;;;;12.10;86.40;;;;;;5038414;28;36835;-59
2022/04/28 07:19:49;;;;;;;;;;;12.10;86.30;;;;;;5035380;28;37097;-58
2022/04/28 07:22:16;;;;;;;;;;;11.90;86.90;;;;;;5036614;28;35259;-58
2022/04/28 07:24:43;;;;;;;;;;;11.80;88.40;;;;;;5038945;28;38768;-58
2022/04/28 07:27:10;;;;;;;;;;;11.90;89.30;;;;;;5036963;28;38172;-58
2022/04/28 07:29:38;;;;;;;;;;;12.10;88.50;;;;;;5031901;28;37379;-58
2022/04/28 07:32:07;;;;;;;;;;;12.20;88.40;;;;;;5034081;28;35677;-58
2022/04/28 07:34:34;;;;;;;;;;;12.40;87.10;;;;;;5034646;28;39156;-58
2022/04/28 07:37:01;;;;;;;;;;;12.40;85.90;;;;;;5034909;28;38594;-59
2022/04/28 07:39:28;;;;;;;;;;;12.40;86.60;;;;;;5035478;28;38101;-58
2022/04/28 07:41:55;;;;;;;;;;;12.40;87.20;;;;;;5035810;28;36167;-59
2022/04/28 07:44:22;;;;;;;;;;;12.50;85.10;;;;;;5034238;28;38563;-59
2022/04/28 07:46:51;;;;;;;;;;;12.60;84.80;;;;;;5034795;28;38629;-58
2022/04/28 07:49:18;;;;;;;;;;;12.80;85.90;;;;;;5035970;28;37451;-58
2022/04/28 07:51:45;;;;;;;;;;;12.90;83.30;;;;;;5038670;28;35682;-58
2022/04/28 07:54:12;;;;;;;;;;;13.00;86.20;;;;;;5037705;28;40195;-58
2022/04/28 07:56:39;;;;;;;;;;;13.30;83.80;;;;;;5036415;28;37788;-58
2022/04/28 07:59:07;;;;;;;;;;;13.60;82.90;;;;;;5036506;28;37407;-58
2022/04/28 08:01:34;;;;;;;;;;;13.80;79.60;;;;;;5036495;28;36289;-58
2022/04/28 08:04:02;;;;;;;;;;;13.90;78.20;;;;;;5039540;28;37876;-58
2022/04/28 08:06:29;;;;;;;;;;;13.80;78.60;;;;;;5035374;28;38506;-58
2022/04/28 08:08:57;;;;;;;;;;;13.70;77.70;;;;;;5036345;28;38567;-59
2022/04/28 08:11:24;;;;;;;;;;;13.60;78.50;;;;;;5037213;28;35208;-58
2022/04/28 08:13:51;;;;;;;;;;;13.80;81.70;;;;;;5036910;28;38549;-58
2022/04/28 08:16:18;;;;;;;;;;;14.00;77.60;;;;;;5037220;28;36735;-58
2022/04/28 08:18:45;;;;;;;;;;;14.10;75.90;;;;;;5037437;28;36802;-58
2022/04/28 08:21:13;;;;;;;;;;;14.00;73.80;;;;;;5037654;28;35204;-59
2022/04/28 08:23:40;;;;;;;;;;;14.10;74.20;;;;;;5037540;28;37465;-58
2022/04/28 08:26:07;;;;;;;;;;;14.20;75.50;;;;;;5037550;28;37835;-58
2022/04/28 08:28:35;;;;;;;;;;;14.40;76.70;;;;;;5039192;28;36844;-59
2022/04/28 08:31:02;;;;;;;;;;;14.60;77.20;;;;;;5038283;28;36227;-58
2022/04/28 08:33:29;;;;;;;;;;;14.90;73.90;;;;;;5039451;28;37466;-59
2022/04/28 08:35:56;;;;;;;;;;;15.00;70.60;;;;;;5036494;28;37742;-58
2022/04/28 08:38:24;;;;;;;;;;;15.10;70.40;;;;;;5038753;28;37469;-59
2022/04/28 08:40:55;;;;;;;;;;;15.10;72.70;;;;;;5037121;28;35090;-59
2022/04/28 08:43:22;;;;;;;;;;;15.20;74.10;;;;;;5038032;28;36606;-59
2022/04/28 08:48:34;;;;;;;;;;;15.40;70.30;;;;;;5037784;28;39107;-59
2022/04/28 08:51:02;;;;;;;;;;;15.20;69.10;;;;;;5038524;28;36481;-59
2022/04/28 08:53:30;;;;;;;;;;;15.10;70.00;;;;;;5036750;28;36476;-58
2022/04/28 08:55:58;;;;;;;;;;;14.90;68.70;;;;;;5039013;28;39124;-59
2022/04/28 08:58:25;;;;;;;;;;;14.60;69.20;;;;;;5035411;28;37562;-59
2022/04/28 09:00:52;;;;;;;;;;;14.30;69.10;;;;;;5037021;28;36983;-59
2022/04/28 09:03:20;;;;;;;;;;;14.10;71.00;;;;;;5034708;28;37154;-59
2022/04/28 09:05:48;;;;;;;;;;;14.00;73.90;;;;;;5037424;28;38536;-59
2022/04/28 09:08:16;;;;;;;;;;;13.80;72.40;;;;;;5036409;28;38350;-59
2022/04/28 09:10:45;;;;;;;;;;;13.70;73.50;;;;;;5037191;28;36493;-56
2022/04/28 09:15:56;;;;;;;;;;;13.50;74.50;;;;;;5033481;28;39304;-58
2022/04/28 09:18:24;;;;;;;;;;;13.40;76.90;;;;;;5031183;28;37820;-58
2022/04/28 09:20:52;;;;;;;;;;;13.40;77.80;;;;;;5036050;28;36813;-58
2022/04/28 09:23:20;;;;;;;;;;;13.30;78.30;;;;;;5035102;28;37708;-58
2022/04/28 09:25:49;;;;;;;;;;;13.30;78.40;;;;;;5034190;28;37520;-58
2022/04/28 09:28:16;;;;;;;;;;;13.30;81.00;;;;;;5035866;28;38319;-59
2022/04/28 09:30:44;;;;;;;;;;;13.30;79.90;;;;;;5033269;28;36195;-58
2022/04/28 09:33:12;;;;;;;;;;;13.30;77.40;;;;;;5035780;28;37431;-58
2022/04/28 09:35:45;;;;;;;;;;;13.20;76.70;;;;;;5037511;28;38315;-59
2022/04/28 09:38:12;;;;;;;;;;;13.10;76.10;;;;;;5037214;28;38684;-59
2022/04/28 09:43:29;;;;;;;;;;;12.90;77.00;;;;;;5033246;28;39631;-55
2022/04/28 09:45:57;;;;;;;;;;;12.90;79.40;;;;;;5035299;28;37783;-56
2022/04/28 09:48:28;;;;;;;;;;;12.90;78.80;;;;;;5036943;28;36108;-56
2022/04/28 09:50:59;;;;;;;;;;;13.00;80.70;;;;;;5036103;28;36435;-56
2022/04/28 09:53:29;;;;;;;;;;;13.00;80.20;;;;;;5035683;28;37318;-56
2022/04/28 09:55:57;;;;;;;;;;;13.00;79.60;;;;;;5037877;28;39019;-56
2022/04/28 09:58:26;;;;;;;;;;;12.90;80.60;;;;;;5034802;28;39191;-56
2022/04/28 10:01:00;;;;;;;;;;;12.80;80.30;;;;;;5034098;28;36449;-56
2022/04/28 10:03:28;;;;;;;;;;;12.70;80.30;;;;;;5036422;28;36372;-56
2022/04/28 10:05:58;;;;;;;;;;;12.70;81.30;;;;;;5017472;28;33075;-56
2022/04/28 10:08:25;;;;;;;;;;;12.70;81.90;;;;;;5015387;28;37721;-56
2022/04/28 10:10:55;;;;;;;;;;;12.80;80.70;;;;;;5013598;28;37227;-56
2022/04/28 10:13:23;;;;;;;;;;;12.80;80.40;;;;;;5014811;28;38421;-56
2022/04/28 10:15:52;;;;;;;;;;;12.80;79.30;;;;;;5014664;28;38088;-55
2022/04/28 10:18:23;;;;;;;;;;;12.80;80.50;;;;;;5014637;28;36671;-55
2022/04/28 10:20:55;;;;;;;;;;;12.80;80.30;;;;;;5015813;28;36304;-55
2022/04/28 10:32:22;;;;;;;;;;;12.90;81.90;;;;;;5016122;28;36003;-55
2022/04/28 10:34:55;;;;;;;;;;;13.70;81.00;;;;;;5009516;28;37218;-55
2022/04/28 10:37:24;;;;;;;;;;;13.80;81.20;;;;;;5015821;28;39229;-55
2022/04/28 10:39:56;;;;;;;;;;;13.90;78.20;;;;;;5014552;28;36963;-54
2022/04/28 10:42:47;;;;;;;;;;;13.70;77.60;;;;;;5017318;28;36207;-54
2022/04/28 10:45:19;;;;;;;;;;;13.60;77.10;;;;;;5013590;28;37610;-55
2022/04/28 10:47:47;;;;;;;;;;;13.40;78.30;;;;;;5015232;28;37711;-53
2022/04/28 10:50:23;;;;;;;;;;;13.20;79.10;;;;;;5015445;28;38018;-59
2022/04/28 10:52:55;;;;;;;;;;;13.10;80.00;;;;;;5014867;28;36067;-54
2022/04/28 10:55:23;;;;;;;;;;;12.90;80.00;;;;;;5014436;28;36691;-55
2022/04/28 10:57:50;;;;;;;;;;;12.80;80.50;;;;;;5017756;28;37732;-54
2022/04/28 11:00:33;;;;;;;;;;;12.70;80.70;;;;;;5016828;28;37377;-55
2022/04/28 11:03:00;;;;;;;;;;;12.70;81.40;;;;;;5012936;28;36520;-54
2022/04/28 11:05:43;;;;;;;;;;;12.80;81.90;;;;;;5016783;28;38080;-55
2022/04/28 11:08:24;;;;;;;;;;;12.90;84.00;;;;;;5016759;28;38631;-54
2022/04/28 11:11:09;;;;;;;;;;;12.90;81.30;;;;;;5009148;28;37994;-55
2022/04/28 11:13:37;;;;;;;;;;;12.80;81.60;;;;;;5012021;28;36225;-55
2022/04/28 11:16:04;;;;;;;;;;;12.70;82.90;;;;;;5014193;28;37862;-54
2022/04/28 11:18:33;;;;;;;;;;;12.70;82.40;;;;;;5013485;28;38329;-54
2022/04/28 11:21:03;;;;;;;;;;;12.80;83.80;;;;;;5012024;28;38624;-55
2022/04/28 11:23:34;;;;;;;;;;;12.90;81.30;;;;;;5018119;28;37077;-55
2022/04/28 11:26:02;;;;;;;;;;;12.90;82.00;;;;;;5018112;28;36693;-54
2022/04/28 11:28:29;;;;;;;;;;;12.80;82.00;;;;;;5018884;28;37731;-55
2022/04/28 11:30:57;;;;;;;;;;;12.80;82.70;;;;;;5016898;28;38226;-55
2022/04/28 11:33:24;;;;;;;;;;;12.70;83.20;;;;;;5018503;28;35722;-54
2022/04/28 11:35:52;;;;;;;;;;;12.70;83.30;;;;;;5018077;28;39644;-56
2022/04/28 11:38:25;;;;;;;;;;;12.70;83.00;;;;;;5018303;28;37913;-55
2022/04/28 11:41:03;;;;;;;;;;;12.70;83.90;;;;;;5018281;28;38418;-56
2022/04/28 11:43:31;;;;;;;;;;;12.70;83.40;;;;;;5017806;28;36960;-56
2022/04/28 11:45:59;;;;;;;;;;;12.70;81.50;;;;;;5018947;28;37381;-57
2022/04/28 11:48:27;;;;;;;;;;;12.70;81.90;;;;;;5014671;28;38246;-56
2022/04/28 11:50:54;;;;;;;;;;;12.90;83.50;;;;;;5016109;28;38924;-57
2022/04/28 11:53:22;;;;;;;;;;;12.70;82.50;;;;;;5017757;28;37035;-57
2022/04/28 11:55:50;;;;;;;;;;;12.70;83.20;;;;;;5018719;28;39313;-56
2022/04/28 11:58:18;;;;;;;;;;;12.70;83.50;;;;;;5017152;28;37770;-56
2022/04/28 12:00:46;;;;;;;;;;;12.70;82.20;;;;;;5011237;28;39199;-56
2022/04/28 12:03:23;;;;;;;;;;;12.70;83.30;;;;;;5015688;28;35839;-56
2022/04/28 12:05:51;;;;;;;;;;;12.80;84.80;;;;;;5015451;28;38551;-56
2022/04/28 12:08:21;;;;;;;;;;;12.80;82.60;;;;;;5016846;28;36873;-61
2022/04/28 12:16:17;;;;;;;;;;;13.00;85.70;;;;;;5016904;28;38940;-61
2022/04/28 12:21:32;;;;;;;;;;;13.10;82.40;;;;;;5017938;28;39251;-62
2022/04/28 12:24:00;;;;;;;;;;;13.00;81.90;;;;;;5018996;28;36982;-61
2022/04/28 12:26:32;;;;;;;;;;;12.80;82.00;;;;;;5017662;28;36350;-61
2022/04/28 12:29:07;;;;;;;;;;;12.80;82.80;;;;;;5016970;28;38175;-61
2022/04/28 12:31:34;;;;;;;;;;;12.80;82.80;;;;;;5016268;28;37008;-62
2022/04/28 12:34:09;;;;;;;;;;;12.70;82.20;;;;;;5014309;28;35109;-62
2022/04/28 12:36:44;;;;;;;;;;;12.80;83.40;;;;;;5016142;28;39877;-61
2022/04/28 12:39:13;;;;;;;;;;;12.80;83.80;;;;;;5016898;28;38082;-61
2022/04/28 12:41:45;;;;;;;;;;;12.90;82.80;;;;;;5018071;28;36745;-62
2022/04/28 12:44:13;;;;;;;;;;;12.80;82.00;;;;;;5018120;28;37663;-61
2022/04/28 12:46:41;;;;;;;;;;;12.70;83.20;;;;;;5017087;28;37727;-62
2022/04/28 12:49:10;;;;;;;;;;;12.80;82.80;;;;;;5016651;28;37746;-61
2022/04/28 12:51:42;;;;;;;;;;;12.80;83.80;;;;;;5013790;28;37023;-61
2022/04/28 12:54:11;;;;;;;;;;;12.80;82.50;;;;;;5013456;28;37851;-62
2022/04/28 12:56:42;;;;;;;;;;;12.90;81.80;;;;;;5013681;28;37629;-62
2022/04/28 12:59:14;;;;;;;;;;;12.80;81.70;;;;;;5013259;28;39369;-61
2022/04/28 13:01:46;;;;;;;;;;;12.80;82.70;;;;;;5011603;28;36410;-61
2022/04/28 13:04:16;;;;;;;;;;;12.80;81.60;;;;;;5013239;28;37961;-61
2022/04/28 13:06:45;;;;;;;;;;;12.70;81.90;;;;;;5008925;28;35890;-61
2022/04/28 13:09:15;;;;;;;;;;;12.60;85.10;;;;;;5007643;28;36973;-61
2022/04/28 13:11:43;;;;;;;;;;;12.70;85.90;;;;;;5008568;28;35113;-60
2022/04/28 13:14:13;;;;;;;;;;;12.80;83.50;;;;;;5007917;28;35901;-61
2022/04/28 13:16:41;;;;;;;;;;;12.70;82.70;;;;;;5011412;28;39294;-61
2022/04/28 13:19:11;;;;;;;;;;;12.70;85.40;;;;;;5009192;28;37196;-61
2022/04/28 13:21:40;;;;;;;;;;;12.80;84.40;;;;;;5012750;28;36818;-61
2022/04/28 13:24:17;;;;;;;;;;;12.80;83.20;;;;;;5010951;28;36350;-61
2022/04/28 13:26:50;;;;;;;;;;;12.70;82.40;;;;;;5009007;28;38031;-61
2022/04/28 13:29:20;;;;;;;;;;;12.80;84.20;;;;;;5010825;28;36338;-61
2022/04/28 13:31:51;;;;;;;;;;;12.80;83.30;;;;;;5007636;28;37515;-61
2022/04/28 13:34:19;;;;;;;;;;;12.80;83.40;;;;;;5013179;28;35957;-61
2022/04/28 13:36:47;;;;;;;;;;;12.80;83.90;;;;;;5013298;28;38446;-61
2022/04/28 13:39:19;;;;;;;;;;;12.80;84.90;;;;;;5013647;28;37497;-61
2022/04/28 13:41:48;;;;;;;;;;;12.80;83.50;;;;;;5014930;28;36257;-61
2022/04/28 13:44:16;;;;;;;;;;;12.90;83.20;;;;;;5013872;28;36948;-61
2022/04/28 13:46:46;;;;;;;;;;;12.80;82.00;;;;;;5013135;28;39420;-60
2022/04/28 13:49:14;;;;;;;;;;;12.80;82.60;;;;;;5015681;28;37278;-60
2022/04/28 13:51:45;;;;;;;;;;;12.80;85.10;;;;;;5014964;28;36140;-60
2022/04/28 13:54:14;;;;;;;;;;;12.90;83.10;;;;;;5013389;28;36256;-61
2022/04/28 13:56:42;;;;;;;;;;;12.90;85.60;;;;;;5013739;28;39313;-60
2022/04/28 13:59:11;;;;;;;;;;;12.90;83.30;;;;;;5014022;28;38012;-60
2022/04/28 14:01:39;;;;;;;;;;;12.80;83.20;;;;;;5012328;28;36793;-60
2022/04/28 14:04:08;;;;;;;;;;;12.80;83.00;;;;;;5013034;28;36344;-55
2022/04/28 14:06:36;;;;;;;;;;;12.80;84.80;;;;;;5011072;28;36428;-55
2022/04/28 14:09:04;;;;;;;;;;;12.90;85.30;;;;;;5012230;28;39622;-55
2022/04/28 14:11:32;;;;;;;;;;;13.00;87.50;;;;;;5012869;28;37921;-55
2022/04/28 14:14:00;;;;;;;;;;;13.10;84.50;;;;;;5012911;28;36489;-55
2022/04/28 14:16:29;;;;;;;;;;;13.20;84.10;;;;;;5014125;28;36886;-55
2022/04/28 14:18:58;;;;;;;;;;;13.10;81.90;;;;;;5004841;28;39661;-56
2022/04/28 14:21:28;;;;;;;;;;;13.10;81.90;;;;;;5012238;28;36205;-56
2022/04/28 14:23:56;;;;;;;;;;;13.00;82.10;;;;;;5009796;28;36977;-55
2022/04/28 14:26:24;;;;;;;;;;;13.00;83.60;;;;;;5012100;28;36678;-56
2022/04/28 14:28:51;;;;;;;;;;;13.00;82.90;;;;;;5013214;28;38761;-56
2022/04/28 14:31:18;;;;;;;;;;;13.00;82.90;;;;;;5014564;28;37095;-56
2022/04/28 14:33:45;;;;;;;;;;;13.00;81.10;;;;;;5014445;28;36672;-56
2022/04/28 14:36:12;;;;;;;;;;;12.90;81.90;;;;;;5008981;28;36676;-56
2022/04/28 14:38:41;;;;;;;;;;;12.80;82.90;;;;;;5012089;28;38265;-56
2022/04/28 14:41:08;;;;;;;;;;;12.70;85.50;;;;;;5013093;28;35850;-55
2022/04/28 14:43:35;;;;;;;;;;;12.70;82.60;;;;;;5012791;28;38287;-55
2022/04/28 14:46:02;;;;;;;;;;;12.60;82.40;;;;;;5013577;28;36861;-55
2022/04/28 14:52:19;;;;;;;;;;;12.60;83.90;;;;;;5011022;28;37776;-55
2022/04/28 14:54:02;;;;;;;;;;;12.70;82.40;;;;;;5014838;28;38317;-56
2022/04/28 14:56:29;;;;;;;;;;;12.70;82.20;;;;;;5014214;28;37570;-56
2022/04/28 14:58:56;;;;;;;;;;;12.70;83.50;;;;;;5013649;28;39332;-54
2022/04/28 15:01:23;;;;;;;;;;;12.60;83.20;;;;;;5012951;28;37061;-54
2022/04/28 15:03:50;;;;;;;;;;;12.60;84.00;;;;;;5012891;28;35499;-55
2022/04/28 15:06:17;;;;;;;;;;;12.60;84.10;;;;;;5011843;28;37590;-56
2022/04/28 15:08:45;;;;;;;;;;;12.50;83.40;;;;;;5007993;28;36714;-55